Aérodrome :
LOGIN :

S'inscrire | Disclaimer

   EN    FR    IT 

 










Légende :    VFR   VFR Marginal   IFR   IFR Intensif   IFR Très Intensif
Visi : 
Plafond : 
>= 8 km
>= 3000ft
5 à 8 km
1000 à 3000 ft
1500m à 5 km
500 à 1000 ft
800 à 1500m
200 à 500 ft
< 800m
< 200 ft
Symboles :   Orages  Brouillard  Fortes neiges  Fortes précipitations  Vent > 20 kt
SIGMETs :   Divers  Orages  Givrage  Turbulence  Onde Orograph.  Cendres Volcan.







- Altitude de l'aérodrome : 1830 ft


EBLB - Butgenbach Elsenborn

DERNIER METAR :
  • 232255Z AUTO 30007KT 5000 OVC007/// 18/17 Q1017 GRN

METARs EXPIRÉS :
  • 232225Z AUTO 27003KT 9999 OVC011/// 18/16 Q1017 GRN
  • 232155Z AUTO 24003KT 9999 BKN013/// BKN230/// 18/16 Q1017 GRN
  • 232146Z AUTO VRB02KT 9999 SCT014/// BKN230/// 16/15 Q1017 GRN
  • 232125Z AUTO 20003KT 9999 FEW070/// SCT240/// 17/16 Q1016 BLU
  • 232055Z AUTO 22003KT 9999 BKN064/// 17/16 Q1017 BLU
  • 232025Z AUTO VRB01KT 9999 BKN066/// 17/15 Q1017 BLU
  • 231955Z AUTO VRB01KT 9999 FEW067/// SCT240/// 17/15 Q1016 BLU

Prévision TAF périmée.
Pas de NOTAMs connus pour ce terrain.



MET'MAP, la Météo Aéronautique d'un coup d'oeil ! - Copyright ORBIFLY Décembre 2007 - Disclaimer

ORBIFLY MET'MAP TEAM :

Programmation & Développement : Alexandra Zaïnal
Conception & Développement : Baudouin d'Aumeries
Co-Programmation & Développement : Marc-Olivier Méhu
Soutien technique & logistique : Manuel Goepfert

Contact : metmap@orbifly.com




SOURCES & CREDITS :

   NOAA